Time;durP1;ratioP1;P1;durP2;ratioP2;P2;SDS_P1;SDS_P2;PMS_P1;PMS_P2;Temp;Humidity;BMP_temperature;BMP_pressure;BME280_temperature;BME280_humidity;BME280_pressure;Samples;Min_cycle;Max_cycle;Signal;HPM_P1;HPM_P2
2021/06/05 00:01:18;;;;;;;;;;;;;;;21.85;50.01;101402.22;5038304;28;800;-52
2021/06/05 00:03:43;;;;;;;;;;;;;;;21.95;49.59;101405.97;5037553;28;968;-52
2021/06/05 00:06:10;;;;;;;;;;;;;;;21.96;49.70;101410.41;5038113;28;807;-45
2021/06/05 00:08:35;;;;;;;;;;;;;;;21.88;49.90;101400.78;5037776;28;856;-46
2021/06/05 00:11:02;;;;;;;;;;;;;;;21.76;50.22;101409.50;5037700;28;1977;-51
2021/06/05 00:13:31;;;;;;;;;;;;;;;21.92;50.03;101407.38;5038040;28;843;-44
2021/06/05 00:15:56;;;;;;;;;;;;;;;22.02;49.50;101393.44;5037992;28;1038;-46
2021/06/05 00:18:22;;;;;;;;;;;;;;;22.00;49.66;101392.06;5037387;28;972;-48
2021/06/05 00:20:48;;;;;;;;;;;;;;;21.95;49.65;101401.28;5038006;28;827;-44
2021/06/05 00:23:14;;;;;;;;;;;;;;;22.09;49.33;101393.06;5038098;28;748;-55
2021/06/05 00:25:39;;;;;;;;;;;;;;;21.99;49.60;101390.41;5037898;28;834;-55
2021/06/05 00:28:05;;;;;;;;;;;;;;;21.85;50.00;101395.84;5038041;28;776;-46
2021/06/05 00:30:31;;;;;;;;;;;;;;;21.76;50.20;101387.34;5037269;28;851;-54
2021/06/05 00:32:56;;;;;;;;;;;;;;;21.98;49.54;101383.22;5036855;28;1971;-46
2021/06/05 00:35:22;;;;;;;;;;;;;;;22.04;49.45;101384.81;5037666;28;820;-52
2021/06/05 00:37:48;;;;;;;;;;;;;;;22.04;49.34;101385.63;5037080;28;844;-55
2021/06/05 00:40:13;;;;;;;;;;;;;;;22.03;49.35;101374.84;5037332;28;879;-44
2021/06/05 00:42:39;;;;;;;;;;;;;;;21.93;49.83;101388.84;5037521;28;767;-50
2021/06/05 00:45:06;;;;;;;;;;;;;;;21.95;49.63;101379.13;5037025;28;776;-45
2021/06/05 00:47:31;;;;;;;;;;;;;;;22.05;49.52;101375.41;5036838;28;1026;-50
2021/06/05 00:49:57;;;;;;;;;;;;;;;22.01;49.64;101372.38;5037193;28;820;-44
2021/06/05 00:52:23;;;;;;;;;;;;;;;22.06;49.33;101379.78;5019220;28;1974;-45
2021/06/05 00:54:48;;;;;;;;;;;;;;;22.03;49.61;101369.31;5037428;28;857;-51
2021/06/05 00:57:16;;;;;;;;;;;;;;;22.04;49.34;101371.78;5037803;28;842;-49
2021/06/05 00:59:42;;;;;;;;;;;;;;;21.83;49.83;101375.94;5035707;28;764;-49
2021/06/05 01:02:08;;;;;;;;;;;;;;;22.11;49.30;101371.44;5036986;28;1023;-56
2021/06/05 01:04:33;;;;;;;;;;;;;;;22.09;49.44;101365.38;5037340;28;817;-49
2021/06/05 01:07:09;;;;;;;;;;;;;;;21.99;49.46;101362.72;5002739;28;1274;-48
2021/06/05 01:09:37;;;;;;;;;;;;;;;21.92;49.86;101357.53;5019211;28;1605;-45
2021/06/05 01:12:07;;;;;;;;;;;;;;;21.95;49.72;101361.66;5037111;28;1906;-44
2021/06/05 01:14:39;;;;;;;;;;;;;;;22.00;49.67;101369.91;5019792;28;807;-49
2021/06/05 01:17:09;;;;;;;;;;;;;;;22.02;49.46;101364.88;5018742;28;1210;-44
2021/06/05 01:19:42;;;;;;;;;;;;;;;22.01;49.54;101366.03;5019088;28;1138;-45
2021/06/05 01:22:42;;;;;;;;;;;;;;;22.03;49.33;101369.31;5036614;28;803;-53
2021/06/05 01:25:14;;;;;;;;;;;;;;;22.03;49.63;101363.78;5014150;28;1051;-55
2021/06/05 01:27:42;;;;;;;;;;;;;;;22.00;49.41;101365.19;5036663;28;736;-56
2021/06/05 01:30:14;;;;;;;;;;;;;;;22.09;49.48;101362.59;5002051;28;1299;-47
2021/06/05 01:32:39;;;;;;;;;;;;;;;22.04;49.32;101365.44;5018362;28;1910;-48
2021/06/05 01:35:05;;;;;;;;;;;;;;;21.92;49.88;101370.56;5018958;28;1103;-50
2021/06/05 01:37:31;;;;;;;;;;;;;;;22.11;49.43;101360.34;5018606;28;764;-51
2021/06/05 01:40:10;;;;;;;;;;;;;;;22.33;48.69;101368.13;5020481;28;788;-52
2021/06/05 01:42:37;;;;;;;;;;;;;;;22.21;49.03;101360.22;5019532;28;739;-51
2021/06/05 01:45:03;;;;;;;;;;;;;;;22.01;49.64;101358.53;5018506;28;891;-48
2021/06/05 01:47:28;;;;;;;;;;;;;;;21.96;49.72;101358.59;5035598;28;980;-46
2021/06/05 01:49:54;;;;;;;;;;;;;;;22.03;49.41;101366.53;5018797;28;1234;-45
2021/06/05 01:52:22;;;;;;;;;;;;;;;22.21;48.84;101365.75;5018378;28;1906;-54
2021/06/05 01:55:02;;;;;;;;;;;;;;;22.28;48.91;101368.16;5002769;28;1336;-50
2021/06/05 01:57:32;;;;;;;;;;;;;;;22.27;48.90;101360.16;5036095;28;1417;-45
2021/06/05 02:00:10;;;;;;;;;;;;;;;22.18;49.21;101365.53;5019452;28;812;-45
2021/06/05 02:02:51;;;;;;;;;;;;;;;22.16;49.20;101365.00;5035419;28;940;-51
2021/06/05 02:05:19;;;;;;;;;;;;;;;22.17;49.11;101370.22;5018779;28;1227;-49
2021/06/05 02:07:52;;;;;;;;;;;;;;;22.05;49.56;101367.09;5018238;28;1234;-53
2021/06/05 02:10:17;;;;;;;;;;;;;;;22.15;49.25;101371.69;5018691;28;825;-45
2021/06/05 02:12:51;;;;;;;;;;;;;;;22.27;49.00;101360.16;5019095;28;1969;-50
2021/06/05 02:15:36;;;;;;;;;;;;;;;22.09;49.48;101367.31;5004294;28;1692;-52
2021/06/05 02:18:09;;;;;;;;;;;;;;;22.14;49.38;101364.47;5035814;28;964;-48
2021/06/05 02:20:39;;;;;;;;;;;;;;;22.21;49.16;101360.22;5002176;28;1096;-46
2021/06/05 02:23:07;;;;;;;;;;;;;;;22.14;49.11;101367.25;5002070;28;1100;-44
2021/06/05 02:25:32;;;;;;;;;;;;;;;22.04;49.22;101359.91;5018325;28;738;-50
2021/06/05 02:27:59;;;;;;;;;;;;;;;22.14;49.19;101364.47;5035831;28;817;-46
2021/06/05 02:30:25;;;;;;;;;;;;;;;22.11;49.33;101365.06;5001521;28;1250;-45
2021/06/05 02:32:51;;;;;;;;;;;;;;;22.10;49.50;101358.69;5017656;28;1967;-54
2021/06/05 02:35:24;;;;;;;;;;;;;;;22.00;49.74;101358.84;5035016;28;764;-45
2021/06/05 02:37:59;;;;;;;;;;;;;;;22.10;49.43;101364.22;5018201;28;1122;-52
2021/06/05 02:40:30;;;;;;;;;;;;;;;22.12;49.16;101356.47;5018269;28;1227;-54
2021/06/05 02:42:57;;;;;;;;;;;;;;;22.09;49.48;101356.22;5035371;28;768;-46
2021/06/05 02:45:28;;;;;;;;;;;;;;;22.18;48.99;101360.81;5034639;28;1311;-53
2021/06/05 02:47:58;;;;;;;;;;;;;;;22.11;49.17;101354.81;5033928;28;971;-51
2021/06/05 02:50:24;;;;;;;;;;;;;;;22.07;49.44;101356.53;5018046;28;1460;-52
2021/06/05 02:52:51;;;;;;;;;;;;;;;22.27;49.05;101357.38;5018370;28;1902;-49
2021/06/05 02:55:19;;;;;;;;;;;;;;;22.23;48.93;101357.13;5036250;28;802;-46
2021/06/05 02:57:47;;;;;;;;;;;;;;;22.24;49.13;101369.06;5017382;28;1609;-52
2021/06/05 03:00:19;;;;;;;;;;;;;;;22.17;48.97;101363.88;5035512;28;768;-52
2021/06/05 03:02:44;;;;;;;;;;;;;;;22.20;49.01;101363.28;5035299;28;1023;-48
2021/06/05 03:05:10;;;;;;;;;;;;;;;22.18;49.11;101363.56;5035345;28;698;-52
2021/06/05 03:07:36;;;;;;;;;;;;;;;22.34;48.61;101366.16;5001361;28;1381;-44
2021/06/05 03:10:03;;;;;;;;;;;;;;;22.14;49.17;101370.81;5017967;28;1146;-48
2021/06/05 03:12:30;;;;;;;;;;;;;;;22.05;49.29;101364.31;5017502;28;1918;-53
2021/06/05 03:14:56;;;;;;;;;;;;;;;22.08;49.30;101363.72;5035328;28;859;-49
2021/06/05 03:17:21;;;;;;;;;;;;;;;22.03;49.33;101369.31;5034299;28;1195;-53
2021/06/05 03:19:47;;;;;;;;;;;;;;;22.04;49.44;101370.97;5017730;28;1111;-49
2021/06/05 03:22:13;;;;;;;;;;;;;;;22.10;49.24;101375.31;5002805;28;1341;-46
2021/06/05 03:24:48;;;;;;;;;;;;;;;22.07;49.44;101370.38;5021517;28;1108;-53
2021/06/05 03:27:16;;;;;;;;;;;;;;;22.00;49.71;101364.38;5021059;28;1284;-53
2021/06/05 03:29:42;;;;;;;;;;;;;;;22.02;49.57;101362.13;5021425;28;1276;-49
2021/06/05 03:32:08;;;;;;;;;;;;;;;22.11;49.23;101368.66;5020230;28;1918;-48
2021/06/05 03:34:34;;;;;;;;;;;;;;;22.17;49.23;101369.41;5038881;28;812;-52
2021/06/05 03:37:01;;;;;;;;;;;;;;;22.17;49.03;101366.66;5038826;28;737;-44
2021/06/05 03:39:29;;;;;;;;;;;;;;;22.21;48.81;101362.97;5038603;28;947;-47
2021/06/05 03:41:58;;;;;;;;;;;;;;;22.24;48.83;101369.88;5038530;28;841;-49
2021/06/05 03:44:24;;;;;;;;;;;;;;;22.21;49.09;101362.97;5020722;28;1475;-54
2021/06/05 03:46:52;;;;;;;;;;;;;;;22.31;48.70;101355.66;5020419;28;1132;-57
2021/06/05 03:49:17;;;;;;;;;;;;;;;22.35;48.58;101359.50;5038636;28;963;-44
2021/06/05 03:51:43;;;;;;;;;;;;;;;22.34;48.69;101366.16;5020694;28;1910;-45
2021/06/05 03:54:11;;;;;;;;;;;;;;;22.22;49.16;101366.59;5038569;28;768;-57
2021/06/05 03:56:37;;;;;;;;;;;;;;;22.22;49.04;101367.41;5021066;28;1223;-46
2021/06/05 03:59:02;;;;;;;;;;;;;;;22.07;49.58;101359.28;5037881;28;799;-48
2021/06/05 04:01:28;;;;;;;;;;;;;;;22.21;49.19;101357.44;5038117;28;795;-44
2021/06/05 04:03:55;;;;;;;;;;;;;;;22.32;48.69;101354.53;5037980;28;956;-47
2021/06/05 04:06:20;;;;;;;;;;;;;;;22.32;48.77;101357.31;5038918;28;786;-52
2021/06/05 04:08:46;;;;;;;;;;;;;;;22.15;49.12;101350.31;5038494;28;745;-46
2021/06/05 04:11:11;;;;;;;;;;;;;;;21.56;50.94;101357.13;5037987;28;1965;-49
2021/06/05 04:13:37;;;;;;;;;;;;;;;21.39;51.09;101352.84;5038136;28;788;-50
2021/06/05 04:16:02;;;;;;;;;;;;;;;21.40;51.56;101350.91;5038127;28;1107;-52
2021/06/05 04:18:32;;;;;;;;;;;;;;;21.85;50.00;101344.06;5037572;28;1027;-50
2021/06/05 04:20:57;;;;;;;;;;;;;;;22.12;49.32;101350.94;5037349;28;776;-50
2021/06/05 04:23:23;;;;;;;;;;;;;;;22.47;48.45;101345.19;5037888;28;808;-52
2021/06/05 04:25:49;;;;;;;;;;;;;;;22.18;49.04;101346.97;5038005;28;796;-45
2021/06/05 04:28:15;;;;;;;;;;;;;;;22.00;49.76;101347.75;5037669;28;805;-44
2021/06/05 04:30:41;;;;;;;;;;;;;;;21.78;49.28;101343.59;5037599;28;843;-58
2021/06/05 04:33:06;;;;;;;;;;;;;;;21.77;50.08;101344.72;5035559;28;1906;-45
2021/06/05 04:35:32;;;;;;;;;;;;;;;22.10;49.66;101350.38;5037003;28;740;-61
2021/06/05 04:37:57;;;;;;;;;;;;;;;22.34;48.85;101353.16;5037442;28;804;-44
2021/06/05 04:40:23;;;;;;;;;;;;;;;22.21;49.04;101346.34;5036905;28;794;-45
2021/06/05 04:42:48;;;;;;;;;;;;;;;22.00;49.72;101354.13;5037469;28;756;-44
2021/06/05 04:45:14;;;;;;;;;;;;;;;21.75;49.49;101352.47;5036898;28;784;-46
2021/06/05 04:47:39;;;;;;;;;;;;;;;21.52;50.94;101348.59;5036813;28;968;-55
2021/06/05 04:50:06;;;;;;;;;;;;;;;21.61;50.72;101354.31;5037217;28;831;-43
2021/06/05 04:52:32;;;;;;;;;;;;;;;21.70;50.56;101347.84;5037355;28;1971;-56
2021/06/05 04:54:57;;;;;;;;;;;;;;;21.74;50.36;101345.31;5037598;28;760;-44
2021/06/05 04:57:22;;;;;;;;;;;;;;;21.66;50.41;101349.56;5036688;28;792;-45
2021/06/05 04:59:48;;;;;;;;;;;;;;;21.77;50.31;101349.41;5036613;28;855;-58
2021/06/05 05:02:14;;;;;;;;;;;;;;;21.74;50.42;101355.56;5036499;28;980;-44
2021/06/05 05:04:43;;;;;;;;;;;;;;;21.66;50.50;101337.66;5036204;28;812;-53
2021/06/05 05:07:09;;;;;;;;;;;;;;;21.82;49.88;101354.91;5036035;28;1446;-43
2021/06/05 05:09:34;;;;;;;;;;;;;;;21.69;50.52;101345.38;5018737;28;780;-44
2021/06/05 05:12:00;;;;;;;;;;;;;;;21.70;50.32;101353.38;5035843;28;1913;-59
2021/06/05 05:14:25;;;;;;;;;;;;;;;21.53;50.97;101353.84;5027544;28;752;-55
2021/06/05 05:16:51;;;;;;;;;;;;;;;21.75;50.31;101351.66;5036546;28;1246;-57
2021/06/05 05:19:16;;;;;;;;;;;;;;;21.61;50.62;101346.81;5035991;28;952;-42
2021/06/05 05:21:42;;;;;;;;;;;;;;;21.79;50.06;101353.53;5036466;28;812;-58
2021/06/05 05:24:08;;;;;;;;;;;;;;;21.88;49.90;101345.41;5036730;28;725;-57
2021/06/05 05:26:33;;;;;;;;;;;;;;;21.75;50.33;101346.94;5035803;28;761;-44
2021/06/05 05:28:59;;;;;;;;;;;;;;;21.77;50.29;101355.81;5036499;28;792;-57
2021/06/05 05:31:25;;;;;;;;;;;;;;;21.83;49.92;101354.59;5036577;28;1909;-43
2021/06/05 05:33:50;;;;;;;;;;;;;;;21.72;50.30;101352.28;5017045;28;1023;-57
2021/06/05 05:36:18;;;;;;;;;;;;;;;21.52;50.81;101356.91;5034931;28;873;-57
2021/06/05 05:38:43;;;;;;;;;;;;;;;21.72;50.37;101358.63;5036133;28;792;-50
2021/06/05 05:41:10;;;;;;;;;;;;;;;21.59;50.65;101351.84;5036073;28;830;-53
2021/06/05 05:43:36;;;;;;;;;;;;;;;21.73;50.56;101354.75;5036718;28;792;-54
2021/06/05 05:46:04;;;;;;;;;;;;;;;21.58;50.73;101352.16;5036240;28;860;-50
2021/06/05 05:48:30;;;;;;;;;;;;;;;21.86;49.87;101342.94;5035350;28;1019;-48
2021/06/05 05:50:55;;;;;;;;;;;;;;;21.79;50.21;101345.25;5036106;28;1909;-44
2021/06/05 05:53:21;;;;;;;;;;;;;;;21.79;50.48;101352.72;5036140;28;1093;-54
2021/06/05 05:55:46;;;;;;;;;;;;;;;21.66;50.47;101352.31;5036189;28;748;-56
2021/06/05 05:58:14;;;;;;;;;;;;;;;21.74;50.51;101350.84;5035620;28;823;-43
2021/06/05 06:00:40;;;;;;;;;;;;;;;21.77;50.41;101350.25;5034962;28;2277;-56
2021/06/05 06:03:05;;;;;;;;;;;;;;;21.70;50.62;101361.69;5034606;28;842;-51
2021/06/05 06:05:32;;;;;;;;;;;;;;;21.76;50.50;101364.41;5035017;28;2333;-43
2021/06/05 06:07:57;;;;;;;;;;;;;;;21.85;50.25;101360.69;5035290;28;826;-42
2021/06/05 06:10:23;;;;;;;;;;;;;;;21.58;50.71;101346.63;5035603;28;820;-44
2021/06/05 06:12:48;;;;;;;;;;;;;;;21.67;50.80;101353.13;5035195;28;1965;-41
2021/06/05 06:15:15;;;;;;;;;;;;;;;21.72;50.42;101347.53;5034738;28;1443;-42
2021/06/05 06:17:41;;;;;;;;;;;;;;;21.84;50.28;101353.50;5007044;28;865;-41
2021/06/05 06:20:07;;;;;;;;;;;;;;;21.90;50.24;101345.13;5016553;28;804;-58
2021/06/05 06:22:33;;;;;;;;;;;;;;;21.88;50.05;101343.47;5016155;28;803;-42
2021/06/05 06:24:58;;;;;;;;;;;;;;;21.94;50.32;101348.97;5012507;28;939;-43
2021/06/05 06:27:24;;;;;;;;;;;;;;;21.86;50.14;101353.19;4996274;28;832;-57
2021/06/05 06:29:49;;;;;;;;;;;;;;;21.78;50.61;101351.88;4996464;28;796;-51
2021/06/05 06:32:15;;;;;;;;;;;;;;;21.72;50.83;101342.00;5001886;28;1906;-59
2021/06/05 06:34:40;;;;;;;;;;;;;;;21.69;50.98;101342.59;5015929;28;817;-56
2021/06/05 06:37:06;;;;;;;;;;;;;;;21.86;50.61;101336.59;5016179;28;772;-57
2021/06/05 06:39:31;;;;;;;;;;;;;;;21.66;51.22;101337.66;5015582;28;1104;-57
2021/06/05 06:41:57;;;;;;;;;;;;;;;21.49;51.56;101333.38;5015152;28;966;-57
2021/06/05 06:44:22;;;;;;;;;;;;;;;22.03;50.44;101330.53;5016348;28;834;-56
2021/06/05 06:46:48;;;;;;;;;;;;;;;22.34;49.55;101330.16;5015243;28;948;-52
2021/06/05 06:49:14;;;;;;;;;;;;;;;21.89;50.68;101327.69;5014935;28;1007;-53
2021/06/05 06:51:39;;;;;;;;;;;;;;;21.88;50.84;101324.09;5014944;28;1976;-46
2021/06/05 06:54:05;;;;;;;;;;;;;;;21.75;51.29;101319.28;5015960;28;828;-50
2021/06/05 06:56:31;;;;;;;;;;;;;;;21.83;51.09;101324.16;5015528;28;808;-58
2021/06/05 06:58:56;;;;;;;;;;;;;;;21.81;50.92;101314.50;5019152;28;982;-58
2021/06/05 07:01:22;;;;;;;;;;;;;;;21.68;51.33;101313.28;5019417;28;733;-53
2021/06/05 07:03:47;;;;;;;;;;;;;;;21.74;51.21;101314.88;5018784;28;963;-57
2021/06/05 07:06:13;;;;;;;;;;;;;;;21.87;50.94;101313.31;5019913;28;853;-53
2021/06/05 07:08:39;;;;;;;;;;;;;;;21.86;50.72;101306.94;5019263;28;661;-46
2021/06/05 07:11:09;;;;;;;;;;;;;;;22.08;50.15;101311.09;5019041;28;1906;-58
2021/06/05 07:13:34;;;;;;;;;;;;;;;21.95;50.69;101312.66;5018704;28;893;-53
2021/06/05 07:16:00;;;;;;;;;;;;;;;22.03;50.45;101313.94;5025089;28;1144;-48
2021/06/05 07:18:27;;;;;;;;;;;;;;;22.02;50.42;101307.59;5037689;28;971;-59
2021/06/05 07:20:52;;;;;;;;;;;;;;;22.14;49.91;101309.91;5039033;28;819;-47
2021/06/05 07:23:19;;;;;;;;;;;;;;;21.79;50.79;101306.47;5037996;28;1324;-44
2021/06/05 07:25:44;;;;;;;;;;;;;;;21.29;52.42;101305.94;5038525;28;765;-60
2021/06/05 07:28:20;;;;;;;;;;;;;;;21.25;52.23;101305.72;5038979;28;724;-45
2021/06/05 07:30:46;;;;;;;;;;;;;;;20.97;52.74;101305.44;5038471;28;781;-60
2021/06/05 07:33:11;;;;;;;;;;;;;;;21.46;51.94;101299.94;5038108;28;1917;-54
2021/06/05 07:35:37;;;;;;;;;;;;;;;22.04;50.29;101299.78;5038759;28;808;-45
2021/06/05 07:38:02;;;;;;;;;;;;;;;22.37;49.26;101302.69;5038429;28;816;-47
2021/06/05 07:40:28;;;;;;;;;;;;;;;22.05;50.11;101298.66;5032929;28;1509;-60
2021/06/05 07:42:53;;;;;;;;;;;;;;;21.99;50.38;101301.81;5025855;28;805;-46
2021/06/05 07:45:19;;;;;;;;;;;;;;;21.76;49.84;101301.56;5037892;28;850;-46
2021/06/05 07:47:44;;;;;;;;;;;;;;;21.55;48.71;101289.91;5037664;28;1015;-52
2021/06/05 07:50:11;;;;;;;;;;;;;;;22.01;50.27;101294.03;5038008;28;779;-56
2021/06/05 07:52:36;;;;;;;;;;;;;;;22.17;50.04;101292.69;5036497;28;1917;-58
2021/06/05 07:55:02;;;;;;;;;;;;;;;22.61;48.85;101287.06;5038154;28;744;-60
2021/06/05 07:57:27;;;;;;;;;;;;;;;22.31;49.47;101298.28;5038474;28;826;-59
2021/06/05 07:59:52;;;;;;;;;;;;;;;22.39;49.38;101282.97;5038344;28;673;-59
2021/06/05 08:02:18;;;;;;;;;;;;;;;21.59;49.80;101288.19;5037529;28;987;-44
2021/06/05 08:04:44;;;;;;;;;;;;;;;21.19;52.36;101288.31;5020739;28;1104;-58
2021/06/05 08:07:09;;;;;;;;;;;;;;;21.43;51.61;101284.75;5036904;28;1120;-57
2021/06/05 08:09:35;;;;;;;;;;;;;;;21.44;51.52;101286.41;5038010;28;839;-58
2021/06/05 08:12:00;;;;;;;;;;;;;;;21.60;51.03;101280.72;5037750;28;1985;-59
2021/06/05 08:14:26;;;;;;;;;;;;;;;21.66;50.94;101280.34;5037672;28;823;-49
2021/06/05 08:16:51;;;;;;;;;;;;;;;21.62;50.88;101271.00;5036721;28;994;-51
2021/06/05 08:19:17;;;;;;;;;;;;;;;21.47;51.18;101266.44;5037427;28;956;-52
2021/06/05 08:21:43;;;;;;;;;;;;;;;21.55;50.99;101273.31;5037983;28;819;-52
2021/06/05 08:24:09;;;;;;;;;;;;;;;21.49;51.24;101278.03;5025932;28;1502;-48
2021/06/05 08:26:34;;;;;;;;;;;;;;;21.66;51.04;101265.72;5018649;28;1459;-48
2021/06/05 08:28:59;;;;;;;;;;;;;;;21.99;50.29;101268.56;5017929;28;788;-48
2021/06/05 08:31:25;;;;;;;;;;;;;;;22.19;49.58;101273.81;5018114;28;1979;-59
2021/06/05 08:33:50;;;;;;;;;;;;;;;22.15;49.54;101267.22;5033901;28;1202;-59
2021/06/05 08:36:16;;;;;;;;;;;;;;;22.19;49.36;101271.06;5026013;28;808;-50
2021/06/05 08:38:42;;;;;;;;;;;;;;;22.42;48.94;101260.19;5035964;28;884;-57
2021/06/05 08:41:26;;;;;;;;;;;;;;;21.98;49.94;101255.84;5037269;28;835;-54
2021/06/05 08:43:54;;;;;;;;;;;;;;;21.61;51.25;101255.50;5031318;28;851;-59
2021/06/05 08:46:24;;;;;;;;;;;;;;;21.37;51.10;101258.28;5017509;28;749;-48
2021/06/05 08:48:50;;;;;;;;;;;;;;;21.56;51.33;101257.50;5033754;28;969;-46
2021/06/05 08:51:26;;;;;;;;;;;;;;;22.02;50.01;101246.66;5037192;28;1914;-47
2021/06/05 08:53:51;;;;;;;;;;;;;;;22.16;49.76;101257.81;5019137;28;772;-50
2021/06/05 08:56:19;;;;;;;;;;;;;;;22.37;49.05;101250.03;5018339;28;865;-45
2021/06/05 08:58:46;;;;;;;;;;;;;;;22.40;48.85;101251.38;5008710;28;776;-56
2021/06/05 09:01:30;;;;;;;;;;;;;;;21.78;50.57;101255.00;4999335;28;865;-52
2021/06/05 09:03:56;;;;;;;;;;;;;;;21.43;51.28;101251.53;5035910;28;964;-61
2021/06/05 09:06:43;;;;;;;;;;;;;;;21.16;51.12;101249.38;5036359;28;892;-56
2021/06/05 09:09:09;;;;;;;;;;;;;;;21.85;50.56;101244.41;5036390;28;1359;-60
2021/06/05 09:11:34;;;;;;;;;;;;;;;22.47;48.78;101250.97;5018806;28;1910;-44
2021/06/05 09:14:00;;;;;;;;;;;;;;;22.48;48.83;101247.94;5037117;28;753;-62
2021/06/05 09:16:47;;;;;;;;;;;;;;;22.29;49.38;101255.41;5036232;28;1159;-59
2021/06/05 09:19:14;;;;;;;;;;;;;;;21.88;49.74;101246.56;5033156;28;933;-54
2021/06/05 09:21:46;;;;;;;;;;;;;;;21.16;50.15;101239.13;5034421;28;833;-44
2021/06/05 09:24:15;;;;;;;;;;;;;;;21.46;51.57;101237.16;5036510;28;828;-59
2021/06/05 09:26:41;;;;;;;;;;;;;;;21.71;50.75;101235.19;5036639;28;796;-44
2021/06/05 09:29:07;;;;;;;;;;;;;;;21.73;50.83;101235.72;5018948;28;1352;-48
2021/06/05 09:31:33;;;;;;;;;;;;;;;21.86;50.29;101221.13;5036234;28;1906;-59
2021/06/05 09:33:58;;;;;;;;;;;;;;;22.15;49.56;101222.91;5035945;28;1003;-53
2021/06/05 09:36:32;;;;;;;;;;;;;;;21.60;50.86;101219.84;5018161;28;989;-44
2021/06/05 09:38:59;;;;;;;;;;;;;;;21.51;50.65;101219.66;5002611;28;900;-59
2021/06/05 09:41:28;;;;;;;;;;;;;;;21.15;50.87;101222.84;5017962;28;853;-46
2021/06/05 09:43:54;;;;;;;;;;;;;;;22.00;50.00;101223.16;5036389;28;845;-59
2021/06/05 09:46:31;;;;;;;;;;;;;;;22.41;48.96;101222.53;5018525;28;764;-46
2021/06/05 09:49:15;;;;;;;;;;;;;;;22.54;48.36;101207.91;5035344;28;1196;-49
2021/06/05 09:51:41;;;;;;;;;;;;;;;22.33;48.90;101203.78;5035642;28;1975;-44
2021/06/05 09:54:12;;;;;;;;;;;;;;;21.85;49.83;101205.66;5035270;28;756;-44
2021/06/05 09:56:41;;;;;;;;;;;;;;;20.98;51.80;101206.72;5036095;28;851;-44
2021/06/05 09:59:07;;;;;;;;;;;;;;;21.59;50.48;101209.88;5018238;28;812;-48
2021/06/05 10:01:33;;;;;;;;;;;;;;;21.67;50.16;101211.97;5036098;28;807;-48
2021/06/05 10:04:08;;;;;;;;;;;;;;;21.75;49.97;101211.31;5018040;28;1198;-45
2021/06/05 10:07:00;;;;;;;;;;;;;;;21.73;50.31;101208.03;5035615;28;801;-45
2021/06/05 10:09:25;;;;;;;;;;;;;;;21.49;50.82;101205.25;5033741;28;979;-50
2021/06/05 10:11:51;;;;;;;;;;;;;;;21.45;50.97;101198.72;5035677;28;1973;-43
2021/06/05 10:14:18;;;;;;;;;;;;;;;21.60;50.92;101201.31;5035947;28;824;-43
2021/06/05 10:16:45;;;;;;;;;;;;;;;21.98;49.90;101200.47;5017694;28;1014;-53
2021/06/05 10:19:22;;;;;;;;;;;;;;;22.30;49.23;101207.16;5017666;28;949;-45
2021/06/05 10:21:48;;;;;;;;;;;;;;;22.45;48.64;101201.41;5034401;28;488;-47
2021/06/05 10:24:30;;;;;;;;;;;;;;;22.25;49.01;101198.97;5034170;28;912;-48
2021/06/05 10:26:57;;;;;;;;;;;;;;;21.86;50.33;101190.66;5017761;28;820;-56
2021/06/05 10:29:23;;;;;;;;;;;;;;;21.65;50.24;101181.84;5017663;28;861;-45
2021/06/05 10:31:48;;;;;;;;;;;;;;;21.14;49.43;101190.75;5037712;28;1909;-62
2021/06/05 10:34:15;;;;;;;;;;;;;;;21.83;50.72;101191.28;5039603;28;956;-46
2021/06/05 10:36:42;;;;;;;;;;;;;;;22.38;49.25;101187.13;5039445;28;807;-45
2021/06/05 10:39:08;;;;;;;;;;;;;;;22.66;48.12;101192.75;5021318;28;1035;-57
2021/06/05 10:41:38;;;;;;;;;;;;;;;22.84;47.78;101191.03;5020608;28;976;-46
2021/06/05 10:44:04;;;;;;;;;;;;;;;22.16;49.44;101184.97;5039524;28;748;-44
2021/06/05 10:46:32;;;;;;;;;;;;;;;21.85;50.43;101180.75;5022249;28;1111;-45
2021/06/05 10:48:58;;;;;;;;;;;;;;;;;;5038882;28;960;-45
2021/06/05 10:51:24;;;;;;;;;;;;;;;21.27;50.61;101186.47;5039184;28;1914;-43
2021/06/05 10:54:03;;;;;;;;;;;;;;;21.23;50.33;101175.19;5039520;28;828;-62
2021/06/05 10:57:01;;;;;;;;;;;;;;;21.37;50.10;101176.09;5021088;28;1034;-50
2021/06/05 10:59:55;;;;;;;;;;;;;;;21.59;50.07;101173.91;5005752;28;1064;-53
2021/06/05 11:02:33;;;;;;;;;;;;;;;21.48;50.58;101171.25;5025497;28;1175;-44
2021/06/05 11:04:58;;;;;;;;;;;;;;;21.60;50.78;101151.50;5039190;28;748;-49
2021/06/05 11:07:26;;;;;;;;;;;;;;;21.94;50.39;101167.03;5038961;28;748;-59
2021/06/05 11:09:52;;;;;;;;;;;;;;;22.33;49.26;101159.47;5039025;28;835;-46
2021/06/05 11:12:17;;;;;;;;;;;;;;;22.03;50.04;101167.16;5039206;28;1922;-44
2021/06/05 11:14:43;;;;;;;;;;;;;;;21.75;50.90;101164.25;5039135;28;788;-45
2021/06/05 11:17:26;;;;;;;;;;;;;;;21.58;50.33;101166.75;5038123;28;1001;-54
2021/06/05 11:20:08;;;;;;;;;;;;;;;21.28;49.38;101154.91;5039028;28;741;-58
2021/06/05 11:22:51;;;;;;;;;;;;;;;22.10;49.91;101159.28;5038711;28;753;-45
2021/06/05 11:25:16;;;;;;;;;;;;;;;22.55;48.73;101159.69;5038639;28;811;-60
2021/06/05 11:27:42;;;;;;;;;;;;;;;22.51;48.64;101153.09;5038901;28;845;-59
2021/06/05 11:30:22;;;;;;;;;;;;;;;22.05;49.86;101156.63;5038596;28;756;-51
2021/06/05 11:32:48;;;;;;;;;;;;;;;21.99;50.10;101146.75;5038304;28;1979;-45
2021/06/05 11:35:32;;;;;;;;;;;;;;;21.51;50.16;101136.63;5038935;28;824;-61
2021/06/05 11:37:58;;;;;;;;;;;;;;;21.53;50.10;101138.03;5038185;28;768;-65
2021/06/05 11:40:44;;;;;;;;;;;;;;;22.09;49.97;101129.13;5021148;28;788;-45
2021/06/05 11:43:19;;;;;;;;;;;;;;;22.51;48.77;101141.16;5004717;28;1515;-55
2021/06/05 11:45:56;;;;;;;;;;;;;;;21.85;50.44;101147.53;5026380;28;772;-59
2021/06/05 11:48:40;;;;;;;;;;;;;;;21.91;50.26;101155.72;5037501;28;1031;-48
2021/06/05 11:51:20;;;;;;;;;;;;;;;21.30;50.78;101147.16;5037724;28;1985;-54
2021/06/05 11:53:50;;;;;;;;;;;;;;;21.75;50.70;101146.84;5018783;28;756;-47
2021/06/05 11:56:20;;;;;;;;;;;;;;;22.14;49.66;101157.56;5018331;28;848;-46
2021/06/05 11:58:46;;;;;;;;;;;;;;;22.48;48.91;101153.72;5018085;28;539;-46
2021/06/05 12:01:27;;;;;;;;;;;;;;;22.36;49.13;101156.13;5030464;28;872;-61
2021/06/05 12:04:06;;;;;;;;;;;;;;;22.03;49.87;101156.94;5020090;28;956;-60
2021/06/05 12:06:33;;;;;;;;;;;;;;;21.64;50.04;101157.22;5036154;28;895;-54
2021/06/05 12:09:04;;;;;;;;;;;;;;;21.62;51.38;101142.88;5037906;28;776;-50
2021/06/05 12:11:40;;;;;;;;;;;;;;;22.35;49.14;101148.94;5036708;28;1995;-47
2021/06/05 12:14:15;;;;;;;;;;;;;;;22.17;49.49;101147.84;5037175;28;820;-46
2021/06/05 12:16:58;;;;;;;;;;;;;;;22.41;49.11;101141.38;5037273;28;1009;-62
2021/06/05 12:19:24;;;;;;;;;;;;;;;21.90;50.13;101149.38;5037849;28;975;-50
2021/06/05 12:21:50;;;;;;;;;;;;;;;21.55;48.98;101137.72;5019376;28;938;-43
2021/06/05 12:24:25;;;;;;;;;;;;;;;21.85;50.15;101150.28;5020115;28;773;-54
2021/06/05 12:26:53;;;;;;;;;;;;;;;22.22;49.95;101142.22;5037562;28;843;-47
2021/06/05 12:29:24;;;;;;;;;;;;;;;22.60;48.67;101139.34;5037648;28;788;-49
2021/06/05 12:31:50;;;;;;;;;;;;;;;22.29;49.43;101136.28;5036910;28;1906;-57
2021/06/05 12:34:35;;;;;;;;;;;;;;;22.00;50.20;101148.41;5019464;28;1063;-57
2021/06/05 12:37:21;;;;;;;;;;;;;;;21.78;50.53;101135.16;5037605;28;756;-47
2021/06/05 12:39:50;;;;;;;;;;;;;;;21.65;51.40;101137.56;5037013;28;996;-59
2021/06/05 12:42:35;;;;;;;;;;;;;;;22.18;49.89;101132.88;5037303;28;787;-49
2021/06/05 12:45:03;;;;;;;;;;;;;;;22.41;49.04;101124.75;5036259;28;811;-52
2021/06/05 12:47:30;;;;;;;;;;;;;;;22.12;49.63;101131.28;5034817;28;1126;-57
2021/06/05 12:49:55;;;;;;;;;;;;;;;22.04;50.00;101127.28;5018973;28;913;-56
2021/06/05 12:52:28;;;;;;;;;;;;;;;21.83;50.15;101116.53;5019453;28;1985;-55
2021/06/05 12:55:17;;;;;;;;;;;;;;;21.60;49.66;101115.50;5019620;28;856;-57
2021/06/05 12:57:47;;;;;;;;;;;;;;;22.01;50.30;101111.28;5028899;28;1163;-55
2021/06/05 13:00:23;;;;;;;;;;;;;;;22.44;48.99;101113.88;5037245;28;780;-57